sensor_id;sensor_type;location;lat;lon;timestamp;P1;durP1;ratioP1;P2;durP2;ratioP2
21593;SDS011;10959;51.328;7.322;2023-03-02T00:00:01;9.93;;;7.53;;
21593;SDS011;10959;51.328;7.322;2023-03-02T00:02:35;9.10;;;7.13;;
21593;SDS011;10959;51.328;7.322;2023-03-02T00:05:05;9.90;;;6.93;;
21593;SDS011;10959;51.328;7.322;2023-03-02T00:07:34;8.93;;;6.80;;
21593;SDS011;10959;51.328;7.322;2023-03-02T00:10:03;8.23;;;6.17;;
21593;SDS011;10959;51.328;7.322;2023-03-02T00:12:31;11.60;;;6.57;;
21593;SDS011;10959;51.328;7.322;2023-03-02T00:14:59;8.93;;;5.87;;
21593;SDS011;10959;51.328;7.322;2023-03-02T00:17:25;7.60;;;6.30;;
21593;SDS011;10959;51.328;7.322;2023-03-02T00:19:52;9.00;;;6.67;;
21593;SDS011;10959;51.328;7.322;2023-03-02T00:22:19;9.80;;;6.27;;
21593;SDS011;10959;51.328;7.322;2023-03-02T00:24:45;10.43;;;6.90;;
21593;SDS011;10959;51.328;7.322;2023-03-02T00:27:13;8.43;;;6.80;;
21593;SDS011;10959;51.328;7.322;2023-03-02T00:29:40;9.17;;;6.37;;
21593;SDS011;10959;51.328;7.322;2023-03-02T00:32:07;8.00;;;6.60;;
21593;SDS011;10959;51.328;7.322;2023-03-02T00:34:33;7.60;;;6.77;;
21593;SDS011;10959;51.328;7.322;2023-03-02T00:37:00;9.47;;;6.60;;
21593;SDS011;10959;51.328;7.322;2023-03-02T00:39:26;10.20;;;6.63;;
21593;SDS011;10959;51.328;7.322;2023-03-02T00:41:53;8.23;;;7.10;;
21593;SDS011;10959;51.328;7.322;2023-03-02T00:44:20;8.03;;;6.70;;
21593;SDS011;10959;51.328;7.322;2023-03-02T00:46:47;10.27;;;6.83;;
21593;SDS011;10959;51.328;7.322;2023-03-02T00:49:13;8.57;;;6.10;;
21593;SDS011;10959;51.328;7.322;2023-03-02T00:51:40;10.57;;;8.00;;
21593;SDS011;10959;51.328;7.322;2023-03-02T00:54:06;9.23;;;7.13;;
21593;SDS011;10959;51.328;7.322;2023-03-02T00:56:32;8.43;;;6.73;;
21593;SDS011;10959;51.328;7.322;2023-03-02T00:59:03;9.27;;;7.23;;
21593;SDS011;10959;51.328;7.322;2023-03-02T01:01:31;9.67;;;7.50;;
21593;SDS011;10959;51.328;7.322;2023-03-02T01:03:58;8.47;;;6.53;;
21593;SDS011;10959;51.328;7.322;2023-03-02T01:06:24;10.97;;;7.13;;
21593;SDS011;10959;51.328;7.322;2023-03-02T01:08:51;9.00;;;6.93;;
21593;SDS011;10959;51.328;7.322;2023-03-02T01:11:18;11.37;;;7.10;;
21593;SDS011;10959;51.328;7.322;2023-03-02T01:13:46;9.77;;;7.57;;
21593;SDS011;10959;51.328;7.322;2023-03-02T01:16:13;8.60;;;6.97;;
21593;SDS011;10959;51.328;7.322;2023-03-02T01:18:41;8.17;;;6.40;;
21593;SDS011;10959;51.328;7.322;2023-03-02T01:21:08;9.90;;;7.43;;
21593;SDS011;10959;51.328;7.322;2023-03-02T01:23:37;8.70;;;7.20;;
21593;SDS011;10959;51.328;7.322;2023-03-02T01:26:03;8.77;;;7.23;;
21593;SDS011;10959;51.328;7.322;2023-03-02T01:28:30;8.60;;;6.67;;
21593;SDS011;10959;51.328;7.322;2023-03-02T01:30:56;11.53;;;6.90;;
21593;SDS011;10959;51.328;7.322;2023-03-02T01:33:25;9.77;;;7.17;;
21593;SDS011;10959;51.328;7.322;2023-03-02T01:35:52;9.33;;;7.20;;
21593;SDS011;10959;51.328;7.322;2023-03-02T01:38:19;9.43;;;6.43;;
21593;SDS011;10959;51.328;7.322;2023-03-02T01:40:45;9.47;;;7.13;;
21593;SDS011;10959;51.328;7.322;2023-03-02T01:43:13;9.83;;;7.67;;
21593;SDS011;10959;51.328;7.322;2023-03-02T01:45:45;9.07;;;6.70;;
21593;SDS011;10959;51.328;7.322;2023-03-02T01:48:16;13.60;;;8.20;;
21593;SDS011;10959;51.328;7.322;2023-03-02T01:50:46;9.47;;;7.17;;
21593;SDS011;10959;51.328;7.322;2023-03-02T01:53:14;10.83;;;8.67;;
21593;SDS011;10959;51.328;7.322;2023-03-02T01:55:41;12.33;;;8.30;;
21593;SDS011;10959;51.328;7.322;2023-03-02T01:58:09;11.90;;;7.80;;
21593;SDS011;10959;51.328;7.322;2023-03-02T02:00:37;10.70;;;8.33;;
21593;SDS011;10959;51.328;7.322;2023-03-02T02:03:05;9.90;;;7.73;;
21593;SDS011;10959;51.328;7.322;2023-03-02T02:05:36;11.50;;;8.97;;
21593;SDS011;10959;51.328;7.322;2023-03-02T02:08:05;11.27;;;7.93;;
21593;SDS011;10959;51.328;7.322;2023-03-02T02:10:33;9.27;;;8.30;;
21593;SDS011;10959;51.328;7.322;2023-03-02T02:13:00;8.67;;;7.63;;
21593;SDS011;10959;51.328;7.322;2023-03-02T02:15:27;9.30;;;7.37;;
21593;SDS011;10959;51.328;7.322;2023-03-02T02:17:55;9.37;;;7.57;;
21593;SDS011;10959;51.328;7.322;2023-03-02T02:20:22;11.80;;;8.30;;
21593;SDS011;10959;51.328;7.322;2023-03-02T02:23:01;11.20;;;8.63;;
21593;SDS011;10959;51.328;7.322;2023-03-02T02:25:43;11.17;;;8.67;;
21593;SDS011;10959;51.328;7.322;2023-03-02T02:28:15;8.70;;;7.27;;
21593;SDS011;10959;51.328;7.322;2023-03-02T02:30:45;8.37;;;6.83;;
21593;SDS011;10959;51.328;7.322;2023-03-02T02:33:15;9.77;;;7.77;;
21593;SDS011;10959;51.328;7.322;2023-03-02T02:35:46;10.50;;;7.90;;
21593;SDS011;10959;51.328;7.322;2023-03-02T02:38:15;9.33;;;7.30;;
21593;SDS011;10959;51.328;7.322;2023-03-02T02:40:44;9.33;;;7.73;;
21593;SDS011;10959;51.328;7.322;2023-03-02T02:43:17;12.30;;;7.90;;
21593;SDS011;10959;51.328;7.322;2023-03-02T02:45:45;11.73;;;8.40;;
21593;SDS011;10959;51.328;7.322;2023-03-02T02:48:14;11.33;;;7.80;;
21593;SDS011;10959;51.328;7.322;2023-03-02T02:50:43;9.60;;;8.37;;
21593;SDS011;10959;51.328;7.322;2023-03-02T02:53:11;7.43;;;6.17;;
21593;SDS011;10959;51.328;7.322;2023-03-02T02:55:41;8.93;;;6.90;;
21593;SDS011;10959;51.328;7.322;2023-03-02T02:58:12;8.87;;;6.50;;
21593;SDS011;10959;51.328;7.322;2023-03-02T03:00:49;6.90;;;6.07;;
21593;SDS011;10959;51.328;7.322;2023-03-02T03:03:18;10.60;;;7.30;;
21593;SDS011;10959;51.328;7.322;2023-03-02T03:05:55;11.63;;;8.33;;
21593;SDS011;10959;51.328;7.322;2023-03-02T03:11:18;10.70;;;7.33;;
21593;SDS011;10959;51.328;7.322;2023-03-02T03:13:49;9.97;;;7.80;;
21593;SDS011;10959;51.328;7.322;2023-03-02T03:16:20;9.43;;;7.40;;
21593;SDS011;10959;51.328;7.322;2023-03-02T03:18:48;10.10;;;8.07;;
21593;SDS011;10959;51.328;7.322;2023-03-02T03:21:16;13.57;;;7.50;;
21593;SDS011;10959;51.328;7.322;2023-03-02T03:23:43;11.10;;;7.50;;
21593;SDS011;10959;51.328;7.322;2023-03-02T03:26:10;10.37;;;7.40;;
21593;SDS011;10959;51.328;7.322;2023-03-02T03:28:36;10.37;;;7.83;;
21593;SDS011;10959;51.328;7.322;2023-03-02T03:31:04;8.87;;;6.57;;
21593;SDS011;10959;51.328;7.322;2023-03-02T03:33:31;10.47;;;7.50;;
21593;SDS011;10959;51.328;7.322;2023-03-02T03:35:57;10.00;;;7.63;;
21593;SDS011;10959;51.328;7.322;2023-03-02T03:38:25;10.80;;;7.63;;
21593;SDS011;10959;51.328;7.322;2023-03-02T03:40:51;11.73;;;7.77;;
21593;SDS011;10959;51.328;7.322;2023-03-02T03:43:18;9.33;;;6.83;;
21593;SDS011;10959;51.328;7.322;2023-03-02T03:45:44;10.27;;;8.07;;
21593;SDS011;10959;51.328;7.322;2023-03-02T03:48:12;8.97;;;6.90;;
21593;SDS011;10959;51.328;7.322;2023-03-02T03:50:39;8.83;;;6.87;;
21593;SDS011;10959;51.328;7.322;2023-03-02T03:53:05;10.90;;;7.03;;
21593;SDS011;10959;51.328;7.322;2023-03-02T03:55:32;8.90;;;7.30;;
21593;SDS011;10959;51.328;7.322;2023-03-02T03:57:59;7.80;;;6.50;;
21593;SDS011;10959;51.328;7.322;2023-03-02T04:00:25;9.97;;;7.67;;
21593;SDS011;10959;51.328;7.322;2023-03-02T04:02:51;10.63;;;7.30;;
21593;SDS011;10959;51.328;7.322;2023-03-02T04:05:19;10.07;;;7.57;;
21593;SDS011;10959;51.328;7.322;2023-03-02T04:07:46;9.23;;;6.97;;
21593;SDS011;10959;51.328;7.322;2023-03-02T04:10:12;10.37;;;7.23;;
21593;SDS011;10959;51.328;7.322;2023-03-02T04:12:39;9.80;;;7.33;;
21593;SDS011;10959;51.328;7.322;2023-03-02T04:15:07;10.27;;;7.10;;
21593;SDS011;10959;51.328;7.322;2023-03-02T04:17:38;9.07;;;7.20;;
21593;SDS011;10959;51.328;7.322;2023-03-02T04:20:05;9.33;;;7.27;;
21593;SDS011;10959;51.328;7.322;2023-03-02T04:22:34;8.13;;;6.90;;
21593;SDS011;10959;51.328;7.322;2023-03-02T04:25:01;8.73;;;6.60;;
21593;SDS011;10959;51.328;7.322;2023-03-02T04:27:29;8.23;;;6.80;;
21593;SDS011;10959;51.328;7.322;2023-03-02T04:29:55;8.40;;;5.97;;
21593;SDS011;10959;51.328;7.322;2023-03-02T04:32:22;7.10;;;6.13;;
21593;SDS011;10959;51.328;7.322;2023-03-02T04:34:48;9.83;;;6.50;;
21593;SDS011;10959;51.328;7.322;2023-03-02T04:37:15;9.60;;;7.13;;
21593;SDS011;10959;51.328;7.322;2023-03-02T04:39:42;8.13;;;6.83;;
21593;SDS011;10959;51.328;7.322;2023-03-02T04:42:11;9.07;;;6.57;;
21593;SDS011;10959;51.328;7.322;2023-03-02T04:44:37;10.03;;;7.17;;
21593;SDS011;10959;51.328;7.322;2023-03-02T04:47:04;7.73;;;6.63;;
21593;SDS011;10959;51.328;7.322;2023-03-02T04:49:30;8.83;;;6.73;;
21593;SDS011;10959;51.328;7.322;2023-03-02T04:51:57;8.57;;;6.57;;
21593;SDS011;10959;51.328;7.322;2023-03-02T04:54:24;8.43;;;7.00;;
21593;SDS011;10959;51.328;7.322;2023-03-02T04:56:53;10.03;;;6.67;;
21593;SDS011;10959;51.328;7.322;2023-03-02T04:59:22;8.53;;;6.50;;
21593;SDS011;10959;51.328;7.322;2023-03-02T05:01:50;10.03;;;6.70;;
21593;SDS011;10959;51.328;7.322;2023-03-02T05:04:17;9.43;;;6.67;;
21593;SDS011;10959;51.328;7.322;2023-03-02T05:06:45;9.50;;;7.07;;
21593;SDS011;10959;51.328;7.322;2023-03-02T05:09:11;10.77;;;6.70;;
21593;SDS011;10959;51.328;7.322;2023-03-02T05:11:38;8.83;;;7.07;;
21593;SDS011;10959;51.328;7.322;2023-03-02T05:14:07;9.17;;;6.90;;
21593;SDS011;10959;51.328;7.322;2023-03-02T05:16:36;7.87;;;6.33;;
21593;SDS011;10959;51.328;7.322;2023-03-02T05:19:05;9.07;;;6.60;;
21593;SDS011;10959;51.328;7.322;2023-03-02T05:21:34;8.37;;;6.50;;
21593;SDS011;10959;51.328;7.322;2023-03-02T05:24:00;8.10;;;6.47;;
21593;SDS011;10959;51.328;7.322;2023-03-02T05:26:27;9.17;;;6.80;;
21593;SDS011;10959;51.328;7.322;2023-03-02T05:28:54;8.47;;;6.40;;
21593;SDS011;10959;51.328;7.322;2023-03-02T05:31:22;7.27;;;6.20;;
21593;SDS011;10959;51.328;7.322;2023-03-02T05:33:54;8.83;;;6.07;;
21593;SDS011;10959;51.328;7.322;2023-03-02T05:36:21;9.63;;;5.80;;
21593;SDS011;10959;51.328;7.322;2023-03-02T05:38:47;8.03;;;6.50;;
21593;SDS011;10959;51.328;7.322;2023-03-02T05:41:14;7.13;;;6.17;;
21593;SDS011;10959;51.328;7.322;2023-03-02T05:43:40;7.37;;;6.40;;
21593;SDS011;10959;51.328;7.322;2023-03-02T05:46:07;8.00;;;7.10;;
21593;SDS011;10959;51.328;7.322;2023-03-02T05:48:35;8.23;;;7.07;;
21593;SDS011;10959;51.328;7.322;2023-03-02T05:51:02;8.77;;;6.03;;
21593;SDS011;10959;51.328;7.322;2023-03-02T05:53:29;7.83;;;6.10;;
21593;SDS011;10959;51.328;7.322;2023-03-02T05:55:55;6.97;;;5.87;;
21593;SDS011;10959;51.328;7.322;2023-03-02T05:58:22;12.57;;;6.33;;
21593;SDS011;10959;51.328;7.322;2023-03-02T06:00:48;6.97;;;5.40;;
21593;SDS011;10959;51.328;7.322;2023-03-02T06:03:15;7.37;;;5.80;;
21593;SDS011;10959;51.328;7.322;2023-03-02T06:05:43;8.40;;;5.93;;
21593;SDS011;10959;51.328;7.322;2023-03-02T06:08:14;8.67;;;6.47;;
21593;SDS011;10959;51.328;7.322;2023-03-02T06:10:41;9.77;;;6.37;;
21593;SDS011;10959;51.328;7.322;2023-03-02T06:13:07;9.37;;;6.53;;
21593;SDS011;10959;51.328;7.322;2023-03-02T06:15:34;8.73;;;6.03;;
21593;SDS011;10959;51.328;7.322;2023-03-02T06:18:01;8.97;;;6.63;;
21593;SDS011;10959;51.328;7.322;2023-03-02T06:20:27;8.03;;;6.13;;
21593;SDS011;10959;51.328;7.322;2023-03-02T06:22:55;9.10;;;6.37;;
21593;SDS011;10959;51.328;7.322;2023-03-02T06:25:22;7.93;;;6.60;;
21593;SDS011;10959;51.328;7.322;2023-03-02T06:27:50;7.27;;;6.10;;
21593;SDS011;10959;51.328;7.322;2023-03-02T06:30:18;7.33;;;5.57;;
21593;SDS011;10959;51.328;7.322;2023-03-02T06:32:46;7.63;;;5.53;;
21593;SDS011;10959;51.328;7.322;2023-03-02T06:35:13;9.10;;;5.80;;
21593;SDS011;10959;51.328;7.322;2023-03-02T06:37:40;8.03;;;6.40;;
21593;SDS011;10959;51.328;7.322;2023-03-02T06:40:08;7.43;;;6.20;;
21593;SDS011;10959;51.328;7.322;2023-03-02T06:42:36;6.67;;;5.57;;
21593;SDS011;10959;51.328;7.322;2023-03-02T06:45:04;9.70;;;6.30;;
21593;SDS011;10959;51.328;7.322;2023-03-02T06:47:31;9.37;;;6.70;;
21593;SDS011;10959;51.328;7.322;2023-03-02T06:49:58;8.60;;;5.70;;
21593;SDS011;10959;51.328;7.322;2023-03-02T06:52:25;9.77;;;5.70;;
21593;SDS011;10959;51.328;7.322;2023-03-02T06:54:52;7.40;;;6.10;;
21593;SDS011;10959;51.328;7.322;2023-03-02T06:57:20;7.50;;;6.07;;
21593;SDS011;10959;51.328;7.322;2023-03-02T06:59:46;10.13;;;6.37;;
21593;SDS011;10959;51.328;7.322;2023-03-02T07:02:13;7.47;;;5.77;;
21593;SDS011;10959;51.328;7.322;2023-03-02T07:04:39;9.10;;;6.40;;
21593;SDS011;10959;51.328;7.322;2023-03-02T07:07:06;7.93;;;5.77;;
21593;SDS011;10959;51.328;7.322;2023-03-02T07:09:32;8.37;;;5.70;;
21593;SDS011;10959;51.328;7.322;2023-03-02T07:11:59;8.27;;;5.53;;
21593;SDS011;10959;51.328;7.322;2023-03-02T07:14:27;7.77;;;6.07;;
21593;SDS011;10959;51.328;7.322;2023-03-02T07:16:53;8.53;;;5.90;;
21593;SDS011;10959;51.328;7.322;2023-03-02T07:19:21;7.70;;;5.53;;
21593;SDS011;10959;51.328;7.322;2023-03-02T07:21:47;6.83;;;6.00;;
21593;SDS011;10959;51.328;7.322;2023-03-02T07:24:14;7.57;;;6.13;;
21593;SDS011;10959;51.328;7.322;2023-03-02T07:26:40;8.20;;;6.20;;
21593;SDS011;10959;51.328;7.322;2023-03-02T07:29:07;7.90;;;5.83;;
21593;SDS011;10959;51.328;7.322;2023-03-02T07:31:34;6.83;;;5.77;;
21593;SDS011;10959;51.328;7.322;2023-03-02T07:34:01;8.27;;;5.90;;
21593;SDS011;10959;51.328;7.322;2023-03-02T07:36:27;9.30;;;6.80;;
21593;SDS011;10959;51.328;7.322;2023-03-02T07:38:54;8.20;;;6.57;;
21593;SDS011;10959;51.328;7.322;2023-03-02T07:41:20;7.23;;;6.03;;
21593;SDS011;10959;51.328;7.322;2023-03-02T07:43:47;10.13;;;7.67;;
21593;SDS011;10959;51.328;7.322;2023-03-02T07:46:14;8.30;;;6.63;;
21593;SDS011;10959;51.328;7.322;2023-03-02T07:48:41;10.13;;;6.20;;
21593;SDS011;10959;51.328;7.322;2023-03-02T07:51:08;7.63;;;6.70;;
21593;SDS011;10959;51.328;7.322;2023-03-02T07:53:34;8.30;;;6.30;;
21593;SDS011;10959;51.328;7.322;2023-03-02T07:56:04;8.67;;;6.93;;
21593;SDS011;10959;51.328;7.322;2023-03-02T07:58:32;10.37;;;6.87;;
21593;SDS011;10959;51.328;7.322;2023-03-02T08:00:58;11.37;;;7.50;;
21593;SDS011;10959;51.328;7.322;2023-03-02T08:03:25;8.87;;;7.03;;
21593;SDS011;10959;51.328;7.322;2023-03-02T08:05:52;9.03;;;7.40;;
21593;SDS011;10959;51.328;7.322;2023-03-02T08:08:19;8.47;;;6.30;;
21593;SDS011;10959;51.328;7.322;2023-03-02T08:10:45;8.80;;;6.90;;
21593;SDS011;10959;51.328;7.322;2023-03-02T08:13:12;7.70;;;6.90;;
21593;SDS011;10959;51.328;7.322;2023-03-02T08:15:38;10.97;;;6.67;;
21593;SDS011;10959;51.328;7.322;2023-03-02T08:18:05;8.87;;;6.00;;
21593;SDS011;10959;51.328;7.322;2023-03-02T08:20:31;6.93;;;5.87;;
21593;SDS011;10959;51.328;7.322;2023-03-02T08:22:59;6.77;;;6.03;;
21593;SDS011;10959;51.328;7.322;2023-03-02T08:25:25;7.30;;;6.40;;
21593;SDS011;10959;51.328;7.322;2023-03-02T08:27:52;7.77;;;6.30;;
21593;SDS011;10959;51.328;7.322;2023-03-02T08:30:18;8.03;;;6.27;;
21593;SDS011;10959;51.328;7.322;2023-03-02T08:32:45;7.97;;;6.20;;
21593;SDS011;10959;51.328;7.322;2023-03-02T08:35:11;6.90;;;6.17;;
21593;SDS011;10959;51.328;7.322;2023-03-02T08:37:38;10.73;;;6.77;;
21593;SDS011;10959;51.328;7.322;2023-03-02T08:40:06;6.57;;;5.50;;
21593;SDS011;10959;51.328;7.322;2023-03-02T08:42:33;10.03;;;7.17;;
21593;SDS011;10959;51.328;7.322;2023-03-02T08:45:00;12.77;;;6.43;;
21593;SDS011;10959;51.328;7.322;2023-03-02T08:47:26;6.70;;;6.00;;
21593;SDS011;10959;51.328;7.322;2023-03-02T08:49:53;9.60;;;6.27;;
21593;SDS011;10959;51.328;7.322;2023-03-02T08:52:19;8.17;;;6.03;;
21593;SDS011;10959;51.328;7.322;2023-03-02T08:54:46;6.57;;;5.10;;
21593;SDS011;10959;51.328;7.322;2023-03-02T08:57:13;7.00;;;5.90;;
21593;SDS011;10959;51.328;7.322;2023-03-02T08:59:40;8.20;;;5.97;;
21593;SDS011;10959;51.328;7.322;2023-03-02T09:02:09;7.53;;;6.30;;
21593;SDS011;10959;51.328;7.322;2023-03-02T09:04:35;8.70;;;6.13;;
21593;SDS011;10959;51.328;7.322;2023-03-02T09:07:02;7.47;;;5.50;;
21593;SDS011;10959;51.328;7.322;2023-03-02T09:09:28;8.40;;;6.10;;
21593;SDS011;10959;51.328;7.322;2023-03-02T09:11:55;6.90;;;6.00;;
21593;SDS011;10959;51.328;7.322;2023-03-02T09:14:23;7.70;;;5.60;;
21593;SDS011;10959;51.328;7.322;2023-03-02T09:16:49;9.20;;;6.13;;
21593;SDS011;10959;51.328;7.322;2023-03-02T09:19:16;7.17;;;5.77;;
21593;SDS011;10959;51.328;7.322;2023-03-02T09:21:43;5.90;;;5.27;;
21593;SDS011;10959;51.328;7.322;2023-03-02T09:24:09;7.00;;;5.60;;
21593;SDS011;10959;51.328;7.322;2023-03-02T09:26:36;7.10;;;5.47;;
21593;SDS011;10959;51.328;7.322;2023-03-02T09:29:03;9.20;;;5.80;;
21593;SDS011;10959;51.328;7.322;2023-03-02T09:31:32;7.73;;;5.63;;
21593;SDS011;10959;51.328;7.322;2023-03-02T09:33:59;7.20;;;5.83;;
21593;SDS011;10959;51.328;7.322;2023-03-02T09:36:25;7.23;;;6.50;;
21593;SDS011;10959;51.328;7.322;2023-03-02T09:38:52;10.77;;;6.03;;
21593;SDS011;10959;51.328;7.322;2023-03-02T09:41:30;7.30;;;5.70;;
21593;SDS011;10959;51.328;7.322;2023-03-02T09:44:12;7.57;;;6.23;;
21593;SDS011;10959;51.328;7.322;2023-03-02T09:46:53;6.37;;;5.17;;
21593;SDS011;10959;51.328;7.322;2023-03-02T09:49:26;7.07;;;5.77;;
21593;SDS011;10959;51.328;7.322;2023-03-02T09:52:06;6.77;;;6.00;;
21593;SDS011;10959;51.328;7.322;2023-03-02T09:54:35;6.83;;;6.03;;
21593;SDS011;10959;51.328;7.322;2023-03-02T09:57:15;8.23;;;5.93;;
21593;SDS011;10959;51.328;7.322;2023-03-02T09:59:47;7.80;;;5.57;;
21593;SDS011;10959;51.328;7.322;2023-03-02T10:02:22;7.37;;;5.30;;
21593;SDS011;10959;51.328;7.322;2023-03-02T10:04:51;8.30;;;5.80;;
21593;SDS011;10959;51.328;7.322;2023-03-02T10:07:21;6.37;;;5.23;;
21593;SDS011;10959;51.328;7.322;2023-03-02T10:09:52;7.40;;;6.03;;
21593;SDS011;10959;51.328;7.322;2023-03-02T10:12:27;7.47;;;5.80;;
21593;SDS011;10959;51.328;7.322;2023-03-02T10:15:09;7.13;;;5.73;;
21593;SDS011;10959;51.328;7.322;2023-03-02T10:17:44;8.07;;;5.53;;
21593;SDS011;10959;51.328;7.322;2023-03-02T10:20:20;9.23;;;6.03;;
21593;SDS011;10959;51.328;7.322;2023-03-02T10:22:54;8.80;;;6.03;;
21593;SDS011;10959;51.328;7.322;2023-03-02T10:25:30;7.40;;;5.90;;
21593;SDS011;10959;51.328;7.322;2023-03-02T10:28:07;7.00;;;5.77;;
21593;SDS011;10959;51.328;7.322;2023-03-02T10:30:39;7.30;;;5.57;;
21593;SDS011;10959;51.328;7.322;2023-03-02T10:33:11;7.90;;;6.13;;
21593;SDS011;10959;51.328;7.322;2023-03-02T10:35:40;8.03;;;5.73;;
21593;SDS011;10959;51.328;7.322;2023-03-02T10:38:13;5.83;;;5.03;;
21593;SDS011;10959;51.328;7.322;2023-03-02T10:40:41;6.40;;;5.30;;
21593;SDS011;10959;51.328;7.322;2023-03-02T10:43:12;7.30;;;5.23;;
21593;SDS011;10959;51.328;7.322;2023-03-02T10:45:42;6.23;;;5.63;;
21593;SDS011;10959;51.328;7.322;2023-03-02T10:48:10;7.50;;;5.80;;
21593;SDS011;10959;51.328;7.322;2023-03-02T10:50:38;6.73;;;5.23;;
21593;SDS011;10959;51.328;7.322;2023-03-02T10:53:05;7.53;;;5.73;;
21593;SDS011;10959;51.328;7.322;2023-03-02T10:55:33;7.20;;;6.03;;
21593;SDS011;10959;51.328;7.322;2023-03-02T10:58:01;7.57;;;5.27;;
21593;SDS011;10959;51.328;7.322;2023-03-02T11:00:29;9.00;;;5.70;;
21593;SDS011;10959;51.328;7.322;2023-03-02T11:02:58;8.40;;;5.20;;
21593;SDS011;10959;51.328;7.322;2023-03-02T11:05:28;8.57;;;5.90;;
21593;SDS011;10959;51.328;7.322;2023-03-02T11:07:57;8.47;;;5.87;;
21593;SDS011;10959;51.328;7.322;2023-03-02T11:10:26;7.30;;;5.77;;
21593;SDS011;10959;51.328;7.322;2023-03-02T11:12:56;7.07;;;5.60;;
21593;SDS011;10959;51.328;7.322;2023-03-02T11:15:26;8.70;;;5.70;;
21593;SDS011;10959;51.328;7.322;2023-03-02T11:17:59;5.97;;;5.03;;
21593;SDS011;10959;51.328;7.322;2023-03-02T11:20:32;8.67;;;5.63;;
21593;SDS011;10959;51.328;7.322;2023-03-02T11:23:11;6.03;;;5.27;;
21593;SDS011;10959;51.328;7.322;2023-03-02T11:25:43;8.03;;;5.90;;
21593;SDS011;10959;51.328;7.322;2023-03-02T11:28:16;6.53;;;5.70;;
21593;SDS011;10959;51.328;7.322;2023-03-02T11:30:54;6.10;;;5.50;;
21593;SDS011;10959;51.328;7.322;2023-03-02T11:33:23;7.93;;;5.80;;
21593;SDS011;10959;51.328;7.322;2023-03-02T11:35:57;7.60;;;4.90;;
21593;SDS011;10959;51.328;7.322;2023-03-02T11:38:28;7.77;;;5.53;;
21593;SDS011;10959;51.328;7.322;2023-03-02T11:40:59;6.33;;;5.73;;
21593;SDS011;10959;51.328;7.322;2023-03-02T11:43:31;6.40;;;5.50;;
21593;SDS011;10959;51.328;7.322;2023-03-02T11:45:58;14.87;;;6.20;;
21593;SDS011;10959;51.328;7.322;2023-03-02T11:48:28;8.87;;;5.70;;
21593;SDS011;10959;51.328;7.322;2023-03-02T11:51:01;7.17;;;5.20;;
21593;SDS011;10959;51.328;7.322;2023-03-02T11:53:31;9.40;;;5.53;;
21593;SDS011;10959;51.328;7.322;2023-03-02T11:56:04;6.63;;;5.07;;
21593;SDS011;10959;51.328;7.322;2023-03-02T11:58:31;6.13;;;5.20;;
21593;SDS011;10959;51.328;7.322;2023-03-02T12:00:59;9.17;;;5.03;;
21593;SDS011;10959;51.328;7.322;2023-03-02T12:03:37;6.93;;;4.63;;
21593;SDS011;10959;51.328;7.322;2023-03-02T12:06:21;7.67;;;5.17;;
21593;SDS011;10959;51.328;7.322;2023-03-02T12:08:53;7.87;;;4.87;;
21593;SDS011;10959;51.328;7.322;2023-03-02T12:11:32;7.07;;;5.53;;
21593;SDS011;10959;51.328;7.322;2023-03-02T12:14:03;5.67;;;4.73;;
21593;SDS011;10959;51.328;7.322;2023-03-02T12:16:34;9.13;;;5.10;;
21593;SDS011;10959;51.328;7.322;2023-03-02T12:19:10;5.20;;;4.70;;
21593;SDS011;10959;51.328;7.322;2023-03-02T12:21:41;5.73;;;4.47;;
21593;SDS011;10959;51.328;7.322;2023-03-02T12:24:20;6.67;;;4.60;;
21593;SDS011;10959;51.328;7.322;2023-03-02T12:26:58;6.27;;;4.83;;
21593;SDS011;10959;51.328;7.322;2023-03-02T12:29:25;4.80;;;4.03;;
21593;SDS011;10959;51.328;7.322;2023-03-02T12:32:12;5.77;;;4.33;;
21593;SDS011;10959;51.328;7.322;2023-03-02T12:34:50;6.30;;;4.60;;
21593;SDS011;10959;51.328;7.322;2023-03-02T12:37:22;5.37;;;4.23;;
21593;SDS011;10959;51.328;7.322;2023-03-02T12:42:55;6.70;;;4.90;;
21593;SDS011;10959;51.328;7.322;2023-03-02T12:45:41;6.07;;;4.10;;
21593;SDS011;10959;51.328;7.322;2023-03-02T12:48:21;5.20;;;3.97;;
21593;SDS011;10959;51.328;7.322;2023-03-02T12:50:54;5.50;;;4.30;;
21593;SDS011;10959;51.328;7.322;2023-03-02T12:53:26;6.17;;;4.77;;
21593;SDS011;10959;51.328;7.322;2023-03-02T12:55:53;5.07;;;4.20;;
21593;SDS011;10959;51.328;7.322;2023-03-02T12:58:20;6.40;;;4.10;;
21593;SDS011;10959;51.328;7.322;2023-03-02T13:00:49;8.33;;;4.70;;
21593;SDS011;10959;51.328;7.322;2023-03-02T13:03:17;4.57;;;3.83;;
21593;SDS011;10959;51.328;7.322;2023-03-02T13:05:43;7.07;;;4.37;;
21593;SDS011;10959;51.328;7.322;2023-03-02T13:08:12;5.70;;;4.47;;
21593;SDS011;10959;51.328;7.322;2023-03-02T13:10:47;5.97;;;4.13;;
21593;SDS011;10959;51.328;7.322;2023-03-02T13:13:15;6.27;;;3.93;;
21593;SDS011;10959;51.328;7.322;2023-03-02T13:15:47;6.03;;;4.27;;
21593;SDS011;10959;51.328;7.322;2023-03-02T13:18:15;5.57;;;3.83;;
21593;SDS011;10959;51.328;7.322;2023-03-02T13:20:42;4.70;;;4.20;;
21593;SDS011;10959;51.328;7.322;2023-03-02T13:23:09;4.57;;;3.60;;
21593;SDS011;10959;51.328;7.322;2023-03-02T13:25:37;5.07;;;3.73;;
21593;SDS011;10959;51.328;7.322;2023-03-02T13:28:21;5.83;;;3.87;;
21593;SDS011;10959;51.328;7.322;2023-03-02T13:30:54;6.40;;;4.07;;
21593;SDS011;10959;51.328;7.322;2023-03-02T13:33:22;7.50;;;4.30;;
21593;SDS011;10959;51.328;7.322;2023-03-02T13:35:50;4.20;;;3.50;;
21593;SDS011;10959;51.328;7.322;2023-03-02T13:38:17;3.70;;;3.17;;
21593;SDS011;10959;51.328;7.322;2023-03-02T13:40:45;5.27;;;2.90;;
21593;SDS011;10959;51.328;7.322;2023-03-02T13:43:21;4.07;;;3.13;;
21593;SDS011;10959;51.328;7.322;2023-03-02T13:45:56;3.57;;;3.10;;
21593;SDS011;10959;51.328;7.322;2023-03-02T13:48:24;3.23;;;2.93;;
21593;SDS011;10959;51.328;7.322;2023-03-02T13:50:52;7.13;;;3.30;;
21593;SDS011;10959;51.328;7.322;2023-03-02T13:53:21;3.43;;;3.13;;
21593;SDS011;10959;51.328;7.322;2023-03-02T13:55:48;4.17;;;3.10;;
21593;SDS011;10959;51.328;7.322;2023-03-02T13:58:17;5.53;;;3.17;;
21593;SDS011;10959;51.328;7.322;2023-03-02T14:00:45;5.57;;;3.10;;
21593;SDS011;10959;51.328;7.322;2023-03-02T14:03:23;3.37;;;3.03;;
21593;SDS011;10959;51.328;7.322;2023-03-02T14:05:51;3.90;;;3.00;;
21593;SDS011;10959;51.328;7.322;2023-03-02T14:08:18;3.50;;;3.13;;
21593;SDS011;10959;51.328;7.322;2023-03-02T14:10:45;3.80;;;3.10;;
21593;SDS011;10959;51.328;7.322;2023-03-02T14:13:13;3.97;;;3.20;;
21593;SDS011;10959;51.328;7.322;2023-03-02T14:15:43;3.97;;;3.30;;
21593;SDS011;10959;51.328;7.322;2023-03-02T14:18:23;5.23;;;2.93;;
21593;SDS011;10959;51.328;7.322;2023-03-02T14:20:53;6.27;;;2.93;;
21593;SDS011;10959;51.328;7.322;2023-03-02T14:23:20;4.43;;;3.30;;
21593;SDS011;10959;51.328;7.322;2023-03-02T14:25:47;4.70;;;3.23;;
21593;SDS011;10959;51.328;7.322;2023-03-02T14:28:16;3.67;;;2.83;;
21593;SDS011;10959;51.328;7.322;2023-03-02T14:30:48;4.03;;;3.10;;
21593;SDS011;10959;51.328;7.322;2023-03-02T14:33:18;3.50;;;3.03;;
21593;SDS011;10959;51.328;7.322;2023-03-02T14:35:45;5.33;;;3.50;;
21593;SDS011;10959;51.328;7.322;2023-03-02T14:38:13;3.50;;;3.00;;
21593;SDS011;10959;51.328;7.322;2023-03-02T14:40:39;4.43;;;3.33;;
21593;SDS011;10959;51.328;7.322;2023-03-02T14:43:07;5.03;;;3.23;;
21593;SDS011;10959;51.328;7.322;2023-03-02T14:45:34;3.93;;;3.20;;
21593;SDS011;10959;51.328;7.322;2023-03-02T14:48:02;4.53;;;3.37;;
21593;SDS011;10959;51.328;7.322;2023-03-02T14:50:29;3.93;;;2.93;;
21593;SDS011;10959;51.328;7.322;2023-03-02T14:52:58;3.67;;;2.83;;
21593;SDS011;10959;51.328;7.322;2023-03-02T14:55:26;3.90;;;3.27;;
21593;SDS011;10959;51.328;7.322;2023-03-02T14:57:54;4.70;;;3.33;;
21593;SDS011;10959;51.328;7.322;2023-03-02T15:00:23;3.87;;;3.10;;